createdAt,value
2023-04-04T00:00:52.217Z,1025.79
2023-04-04T00:01:52.205Z,1025.80
2023-04-04T00:02:52.241Z,1025.78
2023-04-04T00:03:52.316Z,1025.85
2023-04-04T00:04:52.176Z,1025.83
2023-04-04T00:05:52.168Z,1025.82
2023-04-04T00:06:52.146Z,1025.83
2023-04-04T00:07:52.142Z,1025.83
2023-04-04T00:08:52.125Z,1025.81
2023-04-04T00:09:52.114Z,1025.82
2023-04-04T00:10:52.106Z,1025.84
2023-04-04T00:11:52.090Z,1025.81
2023-04-04T00:12:52.091Z,1025.80
2023-04-04T00:13:52.094Z,1025.79
2023-04-04T00:14:52.054Z,1025.80
2023-04-04T00:15:52.128Z,1025.78
2023-04-04T00:16:52.038Z,1025.77
2023-04-04T00:17:52.048Z,1025.77
2023-04-04T00:18:52.015Z,1025.76
2023-04-04T00:19:52.033Z,1025.75
2023-04-04T00:20:51.989Z,1025.69
2023-04-04T00:21:51.977Z,1025.74
2023-04-04T00:22:51.981Z,1025.69
2023-04-04T00:23:51.959Z,1025.77
2023-04-04T00:24:51.946Z,1025.72
2023-04-04T00:25:51.966Z,1025.75
2023-04-04T00:26:51.929Z,1025.70
2023-04-04T00:27:51.919Z,1025.77
2023-04-04T00:28:51.901Z,1025.72
2023-04-04T00:29:51.913Z,1025.69
2023-04-04T00:30:51.885Z,1025.74
2023-04-04T00:31:51.958Z,1025.70
2023-04-04T00:32:51.996Z,1025.71
2023-04-04T00:33:51.846Z,1025.75
2023-04-04T00:34:51.835Z,1025.77
2023-04-04T00:35:51.963Z,1025.77
2023-04-04T00:36:51.817Z,1025.76
2023-04-04T00:37:51.801Z,1025.74
2023-04-04T00:38:51.805Z,1025.73
2023-04-04T00:39:51.778Z,1025.80
2023-04-04T00:40:51.769Z,1025.80
2023-04-04T00:41:51.760Z,1025.77
2023-04-04T00:42:51.746Z,1025.80
2023-04-04T00:43:51.737Z,1025.80
2023-04-04T00:44:51.735Z,1025.88
2023-04-04T00:45:51.786Z,1025.77
2023-04-04T00:46:51.713Z,1025.80
2023-04-04T00:47:51.747Z,1025.87
2023-04-04T00:48:51.681Z,1025.79
2023-04-04T00:49:51.673Z,1025.82
2023-04-04T00:50:51.656Z,1025.81
2023-04-04T00:51:51.646Z,1025.83
2023-04-04T00:52:51.667Z,1025.69
2023-04-04T00:53:51.632Z,1025.71
2023-04-04T00:54:51.620Z,1025.75
2023-04-04T00:55:51.604Z,1025.73
2023-04-04T00:56:51.592Z,1025.67
2023-04-04T00:57:51.592Z,1025.76
2023-04-04T00:58:51.601Z,1025.71
2023-04-04T00:59:51.570Z,1025.71
2023-04-04T01:00:51.559Z,1025.67
2023-04-04T01:01:51.560Z,1025.72
2023-04-04T01:02:51.600Z,1025.72
2023-04-04T01:03:51.548Z,1025.71
2023-04-04T01:04:51.500Z,1025.67
2023-04-04T01:05:51.513Z,1025.64
2023-04-04T01:06:51.480Z,1025.63
2023-04-04T01:07:51.468Z,1025.71
2023-04-04T01:08:51.459Z,1025.64
2023-04-04T01:09:51.450Z,1025.62
2023-04-04T01:10:51.428Z,1025.58
2023-04-04T01:11:51.420Z,1025.62
2023-04-04T01:12:51.427Z,1025.67
2023-04-04T01:13:51.401Z,1025.64
2023-04-04T01:14:51.386Z,1025.64
2023-04-04T01:15:51.379Z,1025.60
2023-04-04T01:16:51.446Z,1025.67
2023-04-04T01:17:51.488Z,1025.61
2023-04-04T01:18:51.346Z,1025.59
2023-04-04T01:19:51.327Z,1025.63
2023-04-04T01:20:51.321Z,1025.58
2023-04-04T01:21:51.317Z,1025.57
2023-04-04T01:22:51.294Z,1025.59
2023-04-04T01:23:51.284Z,1025.59
2023-04-04T01:24:51.270Z,1025.56
2023-04-04T01:25:51.268Z,1025.59
2023-04-04T01:26:51.247Z,1025.54
2023-04-04T01:27:51.240Z,1025.57
2023-04-04T01:28:51.226Z,1025.59
2023-04-04T01:29:51.215Z,1025.58
2023-04-04T01:30:51.239Z,1025.51
2023-04-04T01:31:51.214Z,1025.59
2023-04-04T01:32:51.204Z,1025.53
2023-04-04T01:33:51.194Z,1025.57
2023-04-04T01:34:51.157Z,1025.52
2023-04-04T01:35:51.175Z,1025.59
2023-04-04T01:36:51.149Z,1025.58
2023-04-04T01:37:51.122Z,1025.55
2023-04-04T01:38:51.113Z,1025.53
2023-04-04T01:39:51.100Z,1025.58
2023-04-04T01:40:51.088Z,1025.43
2023-04-04T01:41:51.077Z,1025.46
2023-04-04T01:42:51.069Z,1025.47
2023-04-04T01:43:51.057Z,1025.48
2023-04-04T01:44:51.042Z,1025.43
2023-04-04T01:45:51.046Z,1025.48
2023-04-04T01:46:51.026Z,1025.41
2023-04-04T01:47:51.078Z,1025.45
2023-04-04T01:48:51.004Z,1025.44
2023-04-04T01:49:51.019Z,1025.45
2023-04-04T01:50:50.981Z,1025.42
2023-04-04T01:51:50.972Z,1025.44
2023-04-04T01:52:50.952Z,1025.46
2023-04-04T01:53:50.946Z,1025.40
2023-04-04T01:54:50.932Z,1025.42
2023-04-04T01:55:50.924Z,1025.41
2023-04-04T01:56:50.909Z,1025.42
2023-04-04T01:57:50.896Z,1025.43
2023-04-04T01:58:50.897Z,1025.40
2023-04-04T01:59:50.876Z,1025.40
2023-04-04T02:00:50.868Z,1025.37
2023-04-04T02:01:50.990Z,1025.39
2023-04-04T02:02:50.909Z,1025.36
2023-04-04T02:03:50.860Z,1025.36
2023-04-04T02:04:50.831Z,1025.33
2023-04-04T02:05:50.830Z,1025.33
2023-04-04T02:06:50.803Z,1025.28
2023-04-04T02:07:50.847Z,1025.27
2023-04-04T02:08:50.773Z,1025.26
2023-04-04T02:09:50.761Z,1025.22
2023-04-04T02:10:50.764Z,1025.24
2023-04-04T02:11:50.742Z,1025.26
2023-04-04T02:12:50.873Z,1025.19
2023-04-04T02:13:50.716Z,1025.26
2023-04-04T02:14:50.716Z,1025.25
2023-04-04T02:15:50.746Z,1025.25
2023-04-04T02:16:50.680Z,1025.25
2023-04-04T02:17:50.673Z,1025.18
2023-04-04T02:18:50.680Z,1025.27
2023-04-04T02:19:50.653Z,1025.20
2023-04-04T02:20:50.637Z,1025.23
2023-04-04T02:21:50.647Z,1025.30
2023-04-04T02:22:50.619Z,1025.27
2023-04-04T02:23:50.602Z,1025.23
2023-04-04T02:24:50.588Z,1025.28
2023-04-04T02:25:50.575Z,1025.26
2023-04-04T02:26:50.564Z,1025.21
2023-04-04T02:27:50.642Z,1025.25
2023-04-04T02:28:50.541Z,1025.22
2023-04-04T02:29:50.530Z,1025.23
2023-04-04T02:30:50.522Z,1025.24
2023-04-04T02:31:50.515Z,1025.13
2023-04-04T02:32:50.600Z,1025.20
2023-04-04T02:33:50.533Z,1025.16
2023-04-04T02:34:50.472Z,1025.15
2023-04-04T02:35:50.515Z,1025.15
2023-04-04T02:36:50.448Z,1025.06
2023-04-04T02:37:50.463Z,1025.06
2023-04-04T02:38:50.451Z,1025.04
2023-04-04T02:39:50.415Z,1025.09
2023-04-04T02:40:50.409Z,1025.06
2023-04-04T02:41:50.399Z,1025.05
2023-04-04T02:42:50.388Z,1025.07
2023-04-04T02:43:50.384Z,1025.01
2023-04-04T02:44:50.363Z,1025.05
2023-04-04T02:45:50.351Z,1025.10
2023-04-04T02:46:50.349Z,1025.04
2023-04-04T02:47:50.360Z,1025.08
2023-04-04T02:48:50.321Z,1024.97
2023-04-04T02:49:50.310Z,1025.04
2023-04-04T02:50:50.302Z,1025.05
2023-04-04T02:51:50.295Z,1025.05
2023-04-04T02:52:50.271Z,1025.02
2023-04-04T02:53:50.285Z,1024.99
2023-04-04T02:54:50.254Z,1025.04
2023-04-04T02:55:50.241Z,1024.99
2023-04-04T02:56:50.231Z,1024.98
2023-04-04T02:57:50.216Z,1024.95
2023-04-04T02:58:50.232Z,1024.92
2023-04-04T02:59:50.201Z,1024.96
2023-04-04T03:00:50.237Z,1024.98
2023-04-04T03:01:50.224Z,1024.92
2023-04-04T03:02:50.293Z,1024.94
2023-04-04T03:03:50.313Z,1024.91
2023-04-04T03:04:50.139Z,1024.89
2023-04-04T03:05:50.130Z,1024.88
2023-04-04T03:06:50.127Z,1024.86
2023-04-04T03:07:50.107Z,1024.88
2023-04-04T03:08:50.106Z,1024.86
2023-04-04T03:09:50.119Z,1024.85
2023-04-04T03:10:50.069Z,1024.83
2023-04-04T03:11:50.068Z,1024.87
2023-04-04T03:12:50.054Z,1024.83
2023-04-04T03:13:50.038Z,1024.82
2023-04-04T03:14:50.035Z,1024.87
2023-04-04T03:15:50.019Z,1024.84
2023-04-04T03:16:50.053Z,1024.86
2023-04-04T03:17:50.073Z,1024.87
2023-04-04T03:18:49.976Z,1024.85
2023-04-04T03:19:49.964Z,1024.86
2023-04-04T03:20:49.961Z,1024.87
2023-04-04T03:21:49.941Z,1024.83
2023-04-04T03:22:49.937Z,1024.84
2023-04-04T03:23:49.927Z,1024.85
2023-04-04T03:24:49.909Z,1024.87
2023-04-04T03:25:49.923Z,1024.85
2023-04-04T03:26:49.893Z,1024.83
2023-04-04T03:27:49.882Z,1024.87
2023-04-04T03:28:49.866Z,1024.84
2023-04-04T03:29:49.856Z,1024.86
2023-04-04T03:30:49.840Z,1024.84
2023-04-04T03:31:49.866Z,1024.79
2023-04-04T03:32:49.857Z,1024.82
2023-04-04T03:33:49.812Z,1024.77
2023-04-04T03:34:49.792Z,1024.87
2023-04-04T03:35:49.830Z,1024.80
2023-04-04T04:06:49.423Z,1024.46
2023-04-04T04:07:49.410Z,1024.47
2023-04-04T04:10:49.376Z,1024.44
2023-04-04T04:12:49.357Z,1024.46
2023-04-04T04:13:49.367Z,1024.52
2023-04-04T04:14:49.334Z,1024.50
2023-04-04T04:15:49.351Z,1024.49
2023-04-04T04:16:49.305Z,1024.47
2023-04-04T04:17:49.343Z,1024.53
2023-04-04T04:18:49.296Z,1024.56
2023-04-04T04:19:49.277Z,1024.58
2023-04-04T04:20:49.312Z,1024.58
2023-04-04T04:21:49.260Z,1024.54
2023-04-04T04:22:49.656Z,1024.52
2023-04-04T04:23:49.225Z,1024.53
2023-04-04T04:24:49.277Z,1024.49
2023-04-04T04:25:49.212Z,1024.59
2023-04-04T04:26:49.312Z,1024.54
2023-04-04T04:27:49.193Z,1024.50
2023-04-04T04:28:49.253Z,1024.50
2023-04-04T04:29:49.185Z,1024.50
2023-04-04T04:30:49.206Z,1024.48
2023-04-04T04:31:49.176Z,1024.56
2023-04-04T04:32:49.183Z,1024.52
2023-04-04T04:33:49.132Z,1024.49
2023-04-04T04:34:49.127Z,1024.52
2023-04-04T04:35:49.117Z,1024.53
2023-04-04T04:36:49.130Z,1024.50
2023-04-04T04:37:49.092Z,1024.51
2023-04-04T04:38:49.134Z,1024.56
2023-04-04T04:39:49.052Z,1024.54
2023-04-04T04:40:49.061Z,1024.52
2023-04-04T04:41:49.029Z,1024.57
2023-04-04T04:42:49.932Z,1024.57
2023-04-04T04:43:49.006Z,1024.53
2023-04-04T04:44:49.000Z,1024.58
2023-04-04T04:45:49.012Z,1024.56
2023-04-04T04:46:49.029Z,1024.55
2023-04-04T04:47:50.996Z,1024.58
2023-04-04T04:48:48.978Z,1024.57
2023-04-04T04:49:48.945Z,1024.59
2023-04-04T04:50:48.975Z,1024.64
2023-04-04T04:51:48.925Z,1024.61
2023-04-04T04:52:50.903Z,1024.63
2023-04-04T04:53:48.898Z,1024.60
2023-04-04T04:54:50.881Z,1024.65
2023-04-04T04:55:48.870Z,1024.67
2023-04-04T04:56:50.861Z,1024.60
2023-04-04T04:57:48.850Z,1024.65
2023-04-04T04:58:48.962Z,1024.60
2023-04-04T04:59:48.830Z,1024.62
2023-04-04T05:00:48.904Z,1024.62
2023-04-04T05:01:48.859Z,1024.67
2023-04-04T05:02:48.922Z,1024.65
2023-04-04T05:03:49.483Z,1024.59
2023-04-04T05:04:48.830Z,1024.60
2023-04-04T05:05:48.776Z,1024.60
2023-04-04T05:06:48.766Z,1024.65
2023-04-04T05:07:48.743Z,1024.68
2023-04-04T05:08:48.755Z,1024.66
2023-04-04T05:09:48.711Z,1024.70
2023-04-04T05:10:48.748Z,1024.69
2023-04-04T05:11:48.697Z,1024.73
2023-04-04T05:12:48.687Z,1024.75
2023-04-04T05:13:48.664Z,1024.68
2023-04-04T05:14:48.669Z,1024.72
2023-04-04T05:15:48.641Z,1024.76
2023-04-04T05:16:49.044Z,1024.82
2023-04-04T05:17:48.716Z,1024.69
2023-04-04T05:18:48.631Z,1024.73
2023-04-04T05:19:48.608Z,1024.71
2023-04-04T05:20:48.620Z,1024.73
2023-04-04T05:21:48.585Z,1024.76
2023-04-04T05:22:51.464Z,1024.82
2023-04-04T05:23:48.576Z,1024.78
2023-04-04T05:24:48.556Z,1024.74
2023-04-04T05:25:48.528Z,1024.78
2023-04-04T05:26:48.527Z,1024.77
2023-04-04T05:27:48.512Z,1024.81
2023-04-04T05:28:48.500Z,1024.81
2023-04-04T05:29:48.480Z,1024.82
2023-04-04T05:30:48.472Z,1024.83
2023-04-04T05:31:48.481Z,1024.88
2023-04-04T05:32:48.569Z,1024.86
2023-04-04T05:33:48.469Z,1024.84
2023-04-04T05:34:48.432Z,1024.92
2023-04-04T05:35:48.665Z,1024.83
2023-04-04T05:36:48.405Z,1024.90
2023-04-04T05:37:48.393Z,1024.87
2023-04-04T05:38:48.380Z,1024.86
2023-04-04T05:39:48.372Z,1024.88
2023-04-04T05:40:48.394Z,1024.81
2023-04-04T05:41:48.417Z,1024.79
2023-04-04T05:42:48.404Z,1024.80
2023-04-04T05:43:48.328Z,1024.86
2023-04-04T05:44:48.330Z,1024.87
2023-04-04T05:45:48.361Z,1024.83
2023-04-04T05:46:48.294Z,1024.83
2023-04-04T05:47:48.328Z,1024.76
2023-04-04T05:48:48.270Z,1024.84
2023-04-04T05:49:48.282Z,1024.80
2023-04-04T05:50:48.256Z,1024.82
2023-04-04T05:51:48.240Z,1024.81
2023-04-04T05:52:48.225Z,1024.83
2023-04-04T05:53:48.222Z,1024.80
2023-04-04T05:54:48.205Z,1024.84
2023-04-04T05:55:48.198Z,1024.84
2023-04-04T05:56:48.187Z,1024.83
2023-04-04T05:57:48.179Z,1024.85
2023-04-04T05:58:48.192Z,1024.84
2023-04-04T05:59:48.145Z,1024.88
2023-04-04T06:00:48.141Z,1024.85
2023-04-04T06:01:48.128Z,1024.86
2023-04-04T06:02:48.167Z,1024.91
2023-04-04T06:03:48.173Z,1024.86
2023-04-04T06:04:48.108Z,1024.85
2023-04-04T06:05:48.160Z,1024.86
2023-04-04T06:06:48.071Z,1024.87
2023-04-04T06:07:48.054Z,1024.83
2023-04-04T06:08:53.623Z,1024.84
2023-04-04T06:09:48.040Z,1024.86
2023-04-04T06:10:48.021Z,1024.87
2023-04-04T06:11:48.021Z,1024.89
2023-04-04T06:12:47.996Z,1024.95
2023-04-04T06:13:47.986Z,1024.86
2023-04-04T06:14:47.977Z,1024.94
2023-04-04T06:15:48.017Z,1024.88
2023-04-04T06:16:47.951Z,1024.86
2023-04-04T06:17:47.973Z,1024.94
2023-04-04T06:18:47.933Z,1024.94
2023-04-04T06:19:47.929Z,1024.91
2023-04-04T06:20:47.908Z,1024.94
2023-04-04T06:21:47.924Z,1024.99
2023-04-04T06:22:47.886Z,1024.95
2023-04-04T06:23:47.873Z,1024.94
2023-04-04T06:24:47.898Z,1024.92
2023-04-04T06:25:47.882Z,1024.93
2023-04-04T06:26:47.842Z,1024.92
2023-04-04T06:27:47.838Z,1024.99
2023-04-04T06:28:47.817Z,1024.93
2023-04-04T06:29:47.815Z,1024.98
2023-04-04T06:30:47.879Z,1025.00
2023-04-04T06:31:47.824Z,1024.91
2023-04-04T06:32:47.803Z,1024.94
2023-04-04T06:33:47.763Z,1024.93
2023-04-04T06:34:47.753Z,1024.97
2023-04-04T06:35:47.790Z,1024.96
2023-04-04T06:36:47.734Z,1024.98
2023-04-04T06:37:47.742Z,1024.95
2023-04-04T06:38:47.915Z,1024.94
2023-04-04T06:39:47.847Z,1024.98
2023-04-04T06:40:47.685Z,1024.98
2023-04-04T06:41:47.677Z,1024.96
2023-04-04T06:42:47.661Z,1024.94
2023-04-04T06:43:47.653Z,1025.00
2023-04-04T06:44:47.649Z,1025.00
2023-04-04T06:45:47.628Z,1024.96
2023-04-04T06:46:47.650Z,1024.98
2023-04-04T06:47:47.609Z,1025.07
2023-04-04T06:48:47.599Z,1025.08
2023-04-04T06:49:47.584Z,1025.11
2023-04-04T06:50:47.579Z,1025.01
2023-04-04T06:51:47.557Z,1024.99
2023-04-04T06:52:47.552Z,1024.99
2023-04-04T06:53:47.558Z,1024.96
2023-04-04T06:54:47.526Z,1024.97
2023-04-04T06:55:47.513Z,1025.00
2023-04-04T06:56:47.500Z,1024.93
2023-04-04T06:57:47.490Z,1024.99
2023-04-04T06:58:47.508Z,1024.94
2023-04-04T06:59:47.503Z,1024.93
2023-04-04T07:00:47.503Z,1024.89
2023-04-04T07:01:47.500Z,1024.94
2023-04-04T07:02:47.512Z,1024.92
2023-04-04T07:03:47.419Z,1024.92
2023-04-04T07:04:47.409Z,1024.95
2023-04-04T07:05:47.399Z,1024.92
2023-04-04T07:06:47.398Z,1024.88
2023-04-04T07:07:47.377Z,1024.91
2023-04-04T07:08:47.383Z,1024.91
2023-04-04T07:09:47.448Z,1024.87
2023-04-04T07:10:47.364Z,1024.86
2023-04-04T07:11:47.342Z,1024.89
2023-04-04T07:12:47.329Z,1024.75
2023-04-04T07:13:47.317Z,1024.84
2023-04-04T07:14:47.297Z,1024.83
2023-04-04T07:15:47.295Z,1024.77
2023-04-04T07:16:47.343Z,1024.75
2023-04-04T07:17:47.317Z,1024.75
2023-04-04T07:18:47.254Z,1024.74
2023-04-04T07:19:47.241Z,1024.74
2023-04-04T07:20:47.232Z,1024.68
2023-04-04T07:21:47.224Z,1024.70
2023-04-04T07:22:47.217Z,1024.74
2023-04-04T07:23:47.210Z,1024.67
2023-04-04T07:24:47.185Z,1024.75
2023-04-04T07:25:47.196Z,1024.74
2023-04-04T07:26:47.165Z,1024.73
2023-04-04T07:27:47.153Z,1024.70
2023-04-04T07:28:47.140Z,1024.67
2023-04-04T07:29:47.131Z,1024.71
2023-04-04T07:30:47.121Z,1024.76
2023-04-04T07:31:47.116Z,1024.67
2023-04-04T07:32:47.171Z,1024.69
2023-04-04T07:33:47.080Z,1024.70
2023-04-04T07:34:47.076Z,1024.66
2023-04-04T07:35:47.140Z,1024.67
2023-04-04T07:36:47.046Z,1024.72
2023-04-04T07:37:47.044Z,1024.69
2023-04-04T07:38:48.100Z,1024.61
2023-04-04T07:39:47.016Z,1024.66
2023-04-04T07:40:46.996Z,1024.64
2023-04-04T07:41:47.351Z,1024.68
2023-04-04T07:42:46.976Z,1024.68
2023-04-04T07:43:46.967Z,1024.63
2023-04-04T07:44:46.951Z,1024.58
2023-04-04T07:45:47.017Z,1024.59
2023-04-04T07:46:52.235Z,1024.59
2023-04-04T07:47:47.008Z,1024.54
2023-04-04T07:48:46.947Z,1024.57
2023-04-04T07:49:46.898Z,1024.56
2023-04-04T07:50:46.899Z,1024.56
2023-04-04T07:51:46.872Z,1024.57
2023-04-04T07:52:46.861Z,1024.56
2023-04-04T07:53:46.856Z,1024.66
2023-04-04T07:54:46.839Z,1024.61
2023-04-04T07:55:46.826Z,1024.63
2023-04-04T07:56:46.819Z,1024.64
2023-04-04T07:57:46.826Z,1024.62
2023-04-04T07:58:46.791Z,1024.59
2023-04-04T07:59:46.780Z,1024.58
2023-04-04T08:00:46.770Z,1024.53
2023-04-04T08:01:46.763Z,1024.58
2023-04-04T08:02:46.786Z,1024.54
2023-04-04T08:03:46.975Z,1024.54
2023-04-04T08:04:46.773Z,1024.55
2023-04-04T08:05:46.721Z,1024.57
2023-04-04T08:06:46.697Z,1024.55
2023-04-04T08:07:46.687Z,1024.58
2023-04-04T08:08:46.682Z,1024.56
2023-04-04T08:09:46.662Z,1024.53
2023-04-04T08:10:46.650Z,1024.55
2023-04-04T08:11:46.651Z,1024.60
2023-04-04T08:12:46.633Z,1024.56
2023-04-04T08:13:46.658Z,1024.60
2023-04-04T08:14:46.607Z,1024.54
2023-04-04T08:15:46.629Z,1024.50
2023-04-04T08:16:46.590Z,1024.47
2023-04-04T08:17:46.627Z,1024.49
2023-04-04T08:18:46.562Z,1024.46
2023-04-04T08:19:46.560Z,1024.48
2023-04-04T08:20:46.543Z,1024.51
2023-04-04T08:21:46.539Z,1024.42
2023-04-04T08:22:46.517Z,1024.46
2023-04-04T08:23:46.514Z,1024.45
2023-04-04T08:24:46.502Z,1024.48
2023-04-04T08:25:46.482Z,1024.40
2023-04-04T08:26:51.853Z,1024.39
2023-04-04T08:27:46.460Z,1024.38
2023-04-04T08:28:46.460Z,1024.41
2023-04-04T08:29:46.458Z,1024.42
2023-04-04T08:30:46.436Z,1024.43
2023-04-04T08:31:46.459Z,1024.48
2023-04-04T08:32:46.538Z,1024.46
2023-04-04T08:33:47.678Z,1024.53
2023-04-04T08:34:46.386Z,1024.48
2023-04-04T08:35:46.426Z,1024.47
2023-04-04T08:36:46.364Z,1024.45
2023-04-04T08:37:46.368Z,1024.46
2023-04-04T08:38:52.342Z,1024.41
2023-04-04T08:39:46.329Z,1024.47
2023-04-04T08:40:46.310Z,1024.47
2023-04-04T08:41:46.303Z,1024.48
2023-04-04T08:42:46.350Z,1024.46
2023-04-04T08:43:46.299Z,1024.47
2023-04-04T08:44:46.275Z,1024.51
2023-04-04T08:45:46.291Z,1024.54
2023-04-04T08:46:46.293Z,1024.49
2023-04-04T08:47:46.306Z,1024.46
2023-04-04T08:48:46.230Z,1024.48
2023-04-04T08:49:46.224Z,1024.44
2023-04-04T08:50:46.211Z,1024.43
2023-04-04T08:51:46.198Z,1024.45
2023-04-04T08:52:46.183Z,1024.44
2023-04-04T08:53:46.172Z,1024.56
2023-04-04T08:54:46.163Z,1024.44
2023-04-04T08:55:46.152Z,1024.35
2023-04-04T08:56:46.142Z,1024.35
2023-04-04T08:57:46.127Z,1024.35
2023-04-04T08:58:46.212Z,1024.33
2023-04-04T08:59:46.237Z,1024.34
2023-04-04T09:00:46.128Z,1024.30
2023-04-04T09:01:46.123Z,1024.22
2023-04-04T09:02:46.221Z,1024.34
2023-04-04T09:03:46.071Z,1024.38
2023-04-04T09:04:54.563Z,1024.32
2023-04-04T09:05:46.042Z,1024.26
2023-04-04T09:06:46.040Z,1024.25
2023-04-04T09:07:46.027Z,1024.26
2023-04-04T09:08:46.035Z,1024.15
2023-04-04T09:09:45.999Z,1024.17
2023-04-04T09:10:46.026Z,1024.22
2023-04-04T09:11:45.978Z,1024.29
2023-04-04T09:12:45.973Z,1024.26
2023-04-04T09:13:45.952Z,1024.30
2023-04-04T09:14:45.944Z,1024.32
2023-04-04T09:15:45.940Z,1024.28
2023-04-04T09:16:45.963Z,1024.33
2023-04-04T09:17:46.086Z,1024.29
2023-04-04T09:18:45.898Z,1024.31
2023-04-04T09:19:45.885Z,1024.28
2023-04-04T09:20:45.880Z,1024.26
2023-04-04T09:21:45.863Z,1024.26
2023-04-04T09:22:45.856Z,1024.22
2023-04-04T09:23:45.854Z,1024.16
2023-04-04T09:24:45.829Z,1024.22
2023-04-04T09:25:52.774Z,1024.28
2023-04-04T09:26:45.810Z,1024.24
2023-04-04T09:27:45.813Z,1024.23
2023-04-04T09:28:45.787Z,1024.19
2023-04-04T09:29:45.769Z,1024.18
2023-04-04T09:30:45.765Z,1024.30
2023-04-04T09:31:45.757Z,1024.14
2023-04-04T09:32:45.763Z,1024.27
2023-04-04T09:33:45.807Z,1024.22
2023-04-04T09:34:45.714Z,1024.27
2023-04-04T09:35:45.736Z,1024.21
2023-04-04T09:36:45.703Z,1024.24
2023-04-04T09:37:45.680Z,1024.17
2023-04-04T09:38:45.853Z,1024.25
2023-04-04T09:39:45.703Z,1024.16
2023-04-04T09:40:45.743Z,1024.24
2023-04-04T09:41:45.650Z,1024.18
2023-04-04T09:42:45.627Z,1024.16
2023-04-04T09:43:45.672Z,1024.10
2023-04-04T09:44:45.605Z,1024.13
2023-04-04T09:45:45.915Z,1024.10
2023-04-04T09:46:45.619Z,1024.16
2023-04-04T09:47:45.700Z,1024.14
2023-04-04T09:48:45.564Z,1024.18
2023-04-04T09:49:45.577Z,1024.15
2023-04-04T09:50:45.538Z,1024.16
2023-04-04T09:51:45.527Z,1024.12
2023-04-04T09:52:45.519Z,1024.14
2023-04-04T09:53:45.511Z,1024.12
2023-04-04T09:54:48.394Z,1024.19
2023-04-04T09:55:45.488Z,1024.07
2023-04-04T09:56:45.477Z,1024.17
2023-04-04T09:57:45.461Z,1023.97
2023-04-04T09:58:56.055Z,1024.01
2023-04-04T09:59:45.464Z,1023.90
2023-04-04T10:00:45.430Z,1023.94
2023-04-04T10:01:45.450Z,1023.89
2023-04-04T10:02:45.429Z,1024.01
2023-04-04T10:03:45.434Z,1023.98
2023-04-04T10:04:48.856Z,1024.04
2023-04-04T10:05:45.412Z,1024.00
2023-04-04T10:06:45.359Z,1024.02
2023-04-04T10:07:45.349Z,1023.95
2023-04-04T10:08:45.350Z,1023.98
2023-04-04T10:09:45.322Z,1023.95
2023-04-04T10:10:46.527Z,1023.95
2023-04-04T10:11:45.304Z,1023.97
2023-04-04T10:12:45.291Z,1024.00
2023-04-04T10:13:45.280Z,1024.00
2023-04-04T10:14:45.269Z,1024.07
2023-04-04T10:15:45.311Z,1023.97
2023-04-04T10:16:45.255Z,1024.00
2023-04-04T10:17:45.262Z,1024.02
2023-04-04T10:18:45.230Z,1024.08
2023-04-04T10:19:45.217Z,1023.98
2023-04-04T10:20:45.202Z,1023.99
2023-04-04T10:21:45.224Z,1023.95
2023-04-04T10:22:45.225Z,1023.90
2023-04-04T10:23:45.182Z,1023.91
2023-04-04T10:24:45.163Z,1023.92
2023-04-04T10:25:45.152Z,1023.83
2023-04-04T10:26:45.136Z,1023.87
2023-04-04T10:27:45.126Z,1023.87
2023-04-04T10:28:45.119Z,1023.89
2023-04-04T10:29:45.105Z,1023.82
2023-04-04T10:30:55.603Z,1023.83
2023-04-04T10:31:45.133Z,1023.86
2023-04-04T10:32:45.121Z,1023.85
2023-04-04T10:33:45.064Z,1023.79
2023-04-04T10:34:45.049Z,1023.77
2023-04-04T10:35:45.069Z,1023.81
2023-04-04T10:36:45.040Z,1023.75
2023-04-04T10:37:45.043Z,1023.91
2023-04-04T10:38:45.003Z,1023.83
2023-04-04T10:39:44.986Z,1023.85
2023-04-04T10:40:44.984Z,1023.86
2023-04-04T10:41:44.972Z,1023.85
2023-04-04T10:42:47.130Z,1023.81
2023-04-04T10:43:44.953Z,1023.93
2023-04-04T10:44:44.935Z,1023.77
2023-04-04T10:45:44.927Z,1023.90
2023-04-04T10:46:44.923Z,1023.83
2023-04-04T10:47:44.946Z,1023.84
2023-04-04T10:48:44.903Z,1023.85
2023-04-04T10:49:45.006Z,1023.83
2023-04-04T10:50:44.869Z,1023.83
2023-04-04T10:51:55.160Z,1023.80
2023-04-04T10:52:44.841Z,1023.78
2023-04-04T10:53:44.856Z,1023.66
2023-04-04T10:54:44.829Z,1023.73
2023-04-04T10:55:44.815Z,1023.66
2023-04-04T10:56:44.851Z,1023.69
2023-04-04T10:57:44.786Z,1023.54
2023-04-04T10:58:44.846Z,1023.53
2023-04-04T10:59:44.767Z,1023.58
2023-04-04T11:00:44.815Z,1023.57
2023-04-04T11:01:44.745Z,1023.59
2023-04-04T11:02:44.930Z,1023.58
2023-04-04T11:03:44.760Z,1023.58
2023-04-04T11:04:44.714Z,1023.45
2023-04-04T11:05:44.704Z,1023.51
2023-04-04T11:06:44.683Z,1023.67
2023-04-04T11:07:53.898Z,1023.62
2023-04-04T11:08:44.668Z,1023.47
2023-04-04T11:09:44.726Z,1023.46
2023-04-04T11:10:44.642Z,1023.55
2023-04-04T11:11:44.631Z,1023.57
2023-04-04T11:12:44.618Z,1023.52
2023-04-04T11:13:44.611Z,1023.52
2023-04-04T11:14:44.599Z,1023.49
2023-04-04T11:15:44.594Z,1023.49
2023-04-04T11:16:44.646Z,1023.42
2023-04-04T11:17:44.626Z,1023.50
2023-04-04T11:18:44.589Z,1023.42
2023-04-04T11:19:44.548Z,1023.35
2023-04-04T11:20:44.544Z,1023.33
2023-04-04T11:21:44.523Z,1023.33
2023-04-04T11:22:44.512Z,1023.35
2023-04-04T11:23:44.503Z,1023.33
2023-04-04T11:24:44.489Z,1023.21
2023-04-04T11:25:44.501Z,1023.31
2023-04-04T11:26:44.466Z,1023.27
2023-04-04T11:27:44.497Z,1023.24
2023-04-04T11:28:44.450Z,1023.23
2023-04-04T11:29:44.434Z,1023.24
2023-04-04T11:30:44.427Z,1023.27
2023-04-04T11:31:44.440Z,1023.13
2023-04-04T11:32:50.076Z,1023.21
2023-04-04T11:33:44.404Z,1023.23
2023-04-04T11:34:44.382Z,1023.20
2023-04-04T11:35:44.378Z,1023.22
2023-04-04T11:36:44.365Z,1023.25
2023-04-04T11:37:44.338Z,1023.28
2023-04-04T11:38:44.345Z,1023.22
2023-04-04T11:39:44.320Z,1023.26
2023-04-04T11:40:44.306Z,1023.22
2023-04-04T11:41:44.319Z,1023.17
2023-04-04T11:42:44.288Z,1023.17
2023-04-04T11:43:44.269Z,1023.15
2023-04-04T11:44:44.262Z,1023.18
2023-04-04T11:45:44.282Z,1023.14
2023-04-04T11:46:44.257Z,1023.15
2023-04-04T11:47:44.355Z,1023.02
2023-04-04T11:48:44.224Z,1023.04
2023-04-04T11:49:44.221Z,1023.02
2023-04-04T11:50:44.193Z,1022.98
2023-04-04T11:51:44.192Z,1022.99
2023-04-04T11:52:44.218Z,1022.93
2023-04-04T11:53:44.167Z,1022.91
2023-04-04T11:54:44.152Z,1022.93
2023-04-04T11:55:44.135Z,1022.95
2023-04-04T11:56:44.129Z,1022.92
2023-04-04T11:57:44.147Z,1023.00
2023-04-04T11:58:44.132Z,1022.96
2023-04-04T11:59:44.144Z,1022.94
2023-04-04T12:00:44.169Z,1022.96
2023-04-04T12:01:44.075Z,1022.95
2023-04-04T12:02:44.142Z,1022.89
2023-04-04T12:03:44.137Z,1022.85
2023-04-04T12:04:44.169Z,1022.85
2023-04-04T12:05:44.661Z,1022.82
2023-04-04T12:06:44.013Z,1022.87
2023-04-04T12:07:44.016Z,1022.83
2023-04-04T12:08:44.000Z,1022.84
2023-04-04T12:09:43.980Z,1022.76
2023-04-04T12:10:43.977Z,1022.78
2023-04-04T12:11:43.964Z,1022.77
2023-04-04T12:12:43.950Z,1022.71
2023-04-04T12:13:43.977Z,1022.70
2023-04-04T12:14:43.930Z,1022.73
2023-04-04T12:15:44.068Z,1022.65
2023-04-04T12:16:43.909Z,1022.71
2023-04-04T12:17:43.914Z,1022.66
2023-04-04T12:18:43.883Z,1022.72
2023-04-04T12:19:43.889Z,1022.65
2023-04-04T12:20:43.867Z,1022.66
2023-04-04T12:21:43.845Z,1022.67
2023-04-04T12:22:43.838Z,1022.72
2023-04-04T12:23:43.825Z,1022.75
2023-04-04T12:24:43.812Z,1022.62
2023-04-04T12:25:43.806Z,1022.58
2023-04-04T12:26:43.792Z,1022.55
2023-04-04T12:27:43.780Z,1022.61
2023-04-04T12:28:43.779Z,1022.69
2023-04-04T12:29:43.779Z,1022.67
2023-04-04T12:30:43.763Z,1022.54
2023-04-04T12:31:43.794Z,1022.56
2023-04-04T12:32:43.748Z,1022.55
2023-04-04T12:33:43.749Z,1022.51
2023-04-04T12:34:47.016Z,1022.47
2023-04-04T12:35:43.864Z,1022.48
2023-04-04T12:36:43.678Z,1022.42
2023-04-04T12:37:43.666Z,1022.47
2023-04-04T12:38:43.658Z,1022.40